sensor_id;sensor_type;location;lat;lon;timestamp;temperature;humidity
23143;DHT22;11740;51.168;4.112;2022-12-07T00:01:07;4.10;1.00
23143;DHT22;11740;51.168;4.112;2022-12-07T00:03:37;4.10;1.00
23143;DHT22;11740;51.168;4.112;2022-12-07T00:06:05;4.10;1.00
23143;DHT22;11740;51.168;4.112;2022-12-07T00:08:32;4.00;1.00
23143;DHT22;11740;51.168;4.112;2022-12-07T00:11:09;4.00;1.00
23143;DHT22;11740;51.168;4.112;2022-12-07T00:13:47;4.00;1.00
23143;DHT22;11740;51.168;4.112;2022-12-07T00:16:18;4.00;1.00
23143;DHT22;11740;51.168;4.112;2022-12-07T00:18:46;3.90;1.00
23143;DHT22;11740;51.168;4.112;2022-12-07T00:21:14;3.90;1.00
23143;DHT22;11740;51.168;4.112;2022-12-07T00:23:42;3.90;1.00
23143;DHT22;11740;51.168;4.112;2022-12-07T00:26:33;3.80;1.00
23143;DHT22;11740;51.168;4.112;2022-12-07T00:29:03;3.80;1.00
23143;DHT22;11740;51.168;4.112;2022-12-07T00:31:33;3.80;1.00
23143;DHT22;11740;51.168;4.112;2022-12-07T00:34:05;3.80;1.00
23143;DHT22;11740;51.168;4.112;2022-12-07T00:36:33;3.80;1.00
23143;DHT22;11740;51.168;4.112;2022-12-07T00:39:00;3.80;1.00
23143;DHT22;11740;51.168;4.112;2022-12-07T00:41:29;3.80;1.00
23143;DHT22;11740;51.168;4.112;2022-12-07T00:43:56;3.80;1.00
23143;DHT22;11740;51.168;4.112;2022-12-07T00:46:23;3.80;1.00
23143;DHT22;11740;51.168;4.112;2022-12-07T00:48:51;3.80;1.00
23143;DHT22;11740;51.168;4.112;2022-12-07T00:51:19;3.80;1.00
23143;DHT22;11740;51.168;4.112;2022-12-07T00:53:47;3.80;1.00
23143;DHT22;11740;51.168;4.112;2022-12-07T00:56:15;3.80;1.00
23143;DHT22;11740;51.168;4.112;2022-12-07T00:58:51;3.80;99.90
23143;DHT22;11740;51.168;4.112;2022-12-07T01:01:22;3.80;99.90
23143;DHT22;11740;51.168;4.112;2022-12-07T01:03:51;3.80;99.90
23143;DHT22;11740;51.168;4.112;2022-12-07T01:06:18;3.80;99.90
23143;DHT22;11740;51.168;4.112;2022-12-07T01:08:47;3.80;99.90
23143;DHT22;11740;51.168;4.112;2022-12-07T01:11:18;3.90;99.90
23143;DHT22;11740;51.168;4.112;2022-12-07T01:13:46;3.90;1.00
23143;DHT22;11740;51.168;4.112;2022-12-07T01:16:14;3.90;78.70
23143;DHT22;11740;51.168;4.112;2022-12-07T01:18:42;3.80;99.90
23143;DHT22;11740;51.168;4.112;2022-12-07T01:21:13;3.80;99.90
23143;DHT22;11740;51.168;4.112;2022-12-07T01:23:42;3.80;99.90
23143;DHT22;11740;51.168;4.112;2022-12-07T01:26:11;3.80;99.90
23143;DHT22;11740;51.168;4.112;2022-12-07T01:28:40;3.80;99.90
23143;DHT22;11740;51.168;4.112;2022-12-07T01:31:11;3.80;99.90
23143;DHT22;11740;51.168;4.112;2022-12-07T01:33:45;3.80;99.90
23143;DHT22;11740;51.168;4.112;2022-12-07T01:36:19;3.70;35.80
23143;DHT22;11740;51.168;4.112;2022-12-07T01:38:53;3.70;1.00
23143;DHT22;11740;51.168;4.112;2022-12-07T01:41:24;3.70;99.90
23143;DHT22;11740;51.168;4.112;2022-12-07T01:46:45;3.70;99.90
23143;DHT22;11740;51.168;4.112;2022-12-07T01:51:50;3.60;99.90
23143;DHT22;11740;51.168;4.112;2022-12-07T01:54:19;3.70;99.90
23143;DHT22;11740;51.168;4.112;2022-12-07T01:56:49;3.60;99.90
23143;DHT22;11740;51.168;4.112;2022-12-07T01:59:18;3.60;99.90
23143;DHT22;11740;51.168;4.112;2022-12-07T02:01:46;3.60;99.90
23143;DHT22;11740;51.168;4.112;2022-12-07T02:04:13;3.50;99.90
23143;DHT22;11740;51.168;4.112;2022-12-07T02:06:40;3.50;99.90
23143;DHT22;11740;51.168;4.112;2022-12-07T02:09:08;3.50;99.90
23143;DHT22;11740;51.168;4.112;2022-12-07T02:11:35;3.50;99.90
23143;DHT22;11740;51.168;4.112;2022-12-07T02:14:02;3.50;99.90
23143;DHT22;11740;51.168;4.112;2022-12-07T02:16:34;3.50;99.90
23143;DHT22;11740;51.168;4.112;2022-12-07T02:24:55;3.50;99.90
23143;DHT22;11740;51.168;4.112;2022-12-07T02:27:50;3.50;99.90
23143;DHT22;11740;51.168;4.112;2022-12-07T02:30:22;3.50;99.90
23143;DHT22;11740;51.168;4.112;2022-12-07T02:35:32;3.50;1.00
23143;DHT22;11740;51.168;4.112;2022-12-07T02:38:06;3.50;1.00
23143;DHT22;11740;51.168;4.112;2022-12-07T02:40:57;3.50;1.00
23143;DHT22;11740;51.168;4.112;2022-12-07T02:43:31;3.50;1.00
23143;DHT22;11740;51.168;4.112;2022-12-07T02:46:05;3.50;1.00
23143;DHT22;11740;51.168;4.112;2022-12-07T02:48:33;3.50;1.00
23143;DHT22;11740;51.168;4.112;2022-12-07T02:51:01;3.60;1.00
23143;DHT22;11740;51.168;4.112;2022-12-07T02:53:28;3.50;1.00
23143;DHT22;11740;51.168;4.112;2022-12-07T02:56:06;3.50;1.00
23143;DHT22;11740;51.168;4.112;2022-12-07T03:07:48;3.50;1.00
23143;DHT22;11740;51.168;4.112;2022-12-07T03:10:24;3.50;99.90
23143;DHT22;11740;51.168;4.112;2022-12-07T03:13:02;3.50;99.90
23143;DHT22;11740;51.168;4.112;2022-12-07T03:15:31;3.50;99.90
23143;DHT22;11740;51.168;4.112;2022-12-07T03:18:02;3.50;99.90
23143;DHT22;11740;51.168;4.112;2022-12-07T03:20:30;3.50;99.90
23143;DHT22;11740;51.168;4.112;2022-12-07T03:22:59;3.50;99.90
23143;DHT22;11740;51.168;4.112;2022-12-07T03:25:26;3.50;1.00
23143;DHT22;11740;51.168;4.112;2022-12-07T03:28:01;3.50;1.00
23143;DHT22;11740;51.168;4.112;2022-12-07T03:30:31;3.40;1.00
23143;DHT22;11740;51.168;4.112;2022-12-07T03:33:03;3.40;1.00
23143;DHT22;11740;51.168;4.112;2022-12-07T03:35:38;3.40;1.00
23143;DHT22;11740;51.168;4.112;2022-12-07T03:38:21;3.40;1.00
23143;DHT22;11740;51.168;4.112;2022-12-07T03:40:52;3.40;99.90
23143;DHT22;11740;51.168;4.112;2022-12-07T03:43:24;3.40;99.90
23143;DHT22;11740;51.168;4.112;2022-12-07T03:46:06;3.40;99.90
23143;DHT22;11740;51.168;4.112;2022-12-07T03:51:27;3.40;99.90
23143;DHT22;11740;51.168;4.112;2022-12-07T03:54:02;3.40;99.90
23143;DHT22;11740;51.168;4.112;2022-12-07T03:56:35;3.40;99.90
23143;DHT22;11740;51.168;4.112;2022-12-07T03:59:03;3.40;54.20
23143;DHT22;11740;51.168;4.112;2022-12-07T04:01:30;3.30;1.00
23143;DHT22;11740;51.168;4.112;2022-12-07T04:03:58;3.40;99.90
23143;DHT22;11740;51.168;4.112;2022-12-07T04:06:24;3.40;99.90
23143;DHT22;11740;51.168;4.112;2022-12-07T04:08:51;3.30;99.90
23143;DHT22;11740;51.168;4.112;2022-12-07T04:11:18;3.30;99.90
23143;DHT22;11740;51.168;4.112;2022-12-07T04:13:45;3.30;99.90
23143;DHT22;11740;51.168;4.112;2022-12-07T04:16:30;3.30;99.90
23143;DHT22;11740;51.168;4.112;2022-12-07T04:18:57;3.20;99.90
23143;DHT22;11740;51.168;4.112;2022-12-07T04:21:24;3.20;99.90
23143;DHT22;11740;51.168;4.112;2022-12-07T04:23:51;3.20;99.90
23143;DHT22;11740;51.168;4.112;2022-12-07T04:26:17;3.20;99.90
23143;DHT22;11740;51.168;4.112;2022-12-07T04:28:44;3.10;78.10
23143;DHT22;11740;51.168;4.112;2022-12-07T04:31:11;3.10;32.30
23143;DHT22;11740;51.168;4.112;2022-12-07T04:33:38;3.10;15.00
23143;DHT22;11740;51.168;4.112;2022-12-07T04:36:05;3.10;6.60
23143;DHT22;11740;51.168;4.112;2022-12-07T04:38:32;3.00;43.30
23143;DHT22;11740;51.168;4.112;2022-12-07T04:41:04;3.00;99.90
23143;DHT22;11740;51.168;4.112;2022-12-07T04:43:32;3.00;99.90
23143;DHT22;11740;51.168;4.112;2022-12-07T04:45:59;3.00;99.90
23143;DHT22;11740;51.168;4.112;2022-12-07T04:48:26;3.00;99.90
23143;DHT22;11740;51.168;4.112;2022-12-07T04:50:53;3.00;99.90
23143;DHT22;11740;51.168;4.112;2022-12-07T04:53:21;3.00;99.90
23143;DHT22;11740;51.168;4.112;2022-12-07T04:55:48;3.00;99.90
23143;DHT22;11740;51.168;4.112;2022-12-07T04:58:15;2.90;99.90
23143;DHT22;11740;51.168;4.112;2022-12-07T05:00:42;2.90;99.90
23143;DHT22;11740;51.168;4.112;2022-12-07T05:03:08;2.90;99.90
23143;DHT22;11740;51.168;4.112;2022-12-07T05:05:35;2.90;99.90
23143;DHT22;11740;51.168;4.112;2022-12-07T05:08:02;2.90;99.90
23143;DHT22;11740;51.168;4.112;2022-12-07T05:10:29;2.90;99.90
23143;DHT22;11740;51.168;4.112;2022-12-07T05:12:56;2.90;99.90
23143;DHT22;11740;51.168;4.112;2022-12-07T05:15:23;2.90;99.90
23143;DHT22;11740;51.168;4.112;2022-12-07T05:17:49;2.90;1.00
23143;DHT22;11740;51.168;4.112;2022-12-07T05:20:18;2.90;1.00
23143;DHT22;11740;51.168;4.112;2022-12-07T05:22:45;3.00;1.00
23143;DHT22;11740;51.168;4.112;2022-12-07T05:25:12;3.00;1.00
23143;DHT22;11740;51.168;4.112;2022-12-07T05:27:39;3.00;1.00
23143;DHT22;11740;51.168;4.112;2022-12-07T05:30:06;3.00;22.80
23143;DHT22;11740;51.168;4.112;2022-12-07T05:32:33;2.90;1.00
23143;DHT22;11740;51.168;4.112;2022-12-07T05:35:00;2.90;1.00
23143;DHT22;11740;51.168;4.112;2022-12-07T05:37:27;3.00;16.80
23143;DHT22;11740;51.168;4.112;2022-12-07T05:39:53;3.00;8.10
23143;DHT22;11740;51.168;4.112;2022-12-07T05:42:20;3.00;1.00
23143;DHT22;11740;51.168;4.112;2022-12-07T05:44:47;3.00;1.00
23143;DHT22;11740;51.168;4.112;2022-12-07T05:47:14;3.00;1.00
23143;DHT22;11740;51.168;4.112;2022-12-07T05:49:41;3.00;8.30
23143;DHT22;11740;51.168;4.112;2022-12-07T05:52:08;3.00;43.00
23143;DHT22;11740;51.168;4.112;2022-12-07T05:54:35;3.00;23.10
23143;DHT22;11740;51.168;4.112;2022-12-07T05:57:02;3.00;39.50
23143;DHT22;11740;51.168;4.112;2022-12-07T05:59:29;2.90;6.60
23143;DHT22;11740;51.168;4.112;2022-12-07T06:04:37;3.00;90.80
23143;DHT22;11740;51.168;4.112;2022-12-07T06:07:05;3.00;53.30
23143;DHT22;11740;51.168;4.112;2022-12-07T06:09:33;3.00;36.20
23143;DHT22;11740;51.168;4.112;2022-12-07T06:12:00;2.90;10.00
23143;DHT22;11740;51.168;4.112;2022-12-07T06:14:46;2.90;1.00
23143;DHT22;11740;51.168;4.112;2022-12-07T06:17:12;3.00;1.00
23143;DHT22;11740;51.168;4.112;2022-12-07T06:19:40;2.90;1.00
23143;DHT22;11740;51.168;4.112;2022-12-07T06:22:07;2.90;1.00
23143;DHT22;11740;51.168;4.112;2022-12-07T06:24:35;3.00;22.60
23143;DHT22;11740;51.168;4.112;2022-12-07T06:27:02;3.10;4.90
23143;DHT22;11740;51.168;4.112;2022-12-07T06:29:29;3.10;1.00
23143;DHT22;11740;51.168;4.112;2022-12-07T06:31:57;3.00;1.00
23143;DHT22;11740;51.168;4.112;2022-12-07T06:34:25;3.00;1.00
23143;DHT22;11740;51.168;4.112;2022-12-07T06:36:53;3.00;1.00
23143;DHT22;11740;51.168;4.112;2022-12-07T06:39:22;3.00;1.00
23143;DHT22;11740;51.168;4.112;2022-12-07T06:41:51;3.10;1.00
23143;DHT22;11740;51.168;4.112;2022-12-07T06:44:18;3.00;13.40
23143;DHT22;11740;51.168;4.112;2022-12-07T06:46:45;3.10;22.90
23143;DHT22;11740;51.168;4.112;2022-12-07T06:49:12;3.00;30.40
23143;DHT22;11740;51.168;4.112;2022-12-07T06:51:40;3.00;55.00
23143;DHT22;11740;51.168;4.112;2022-12-07T06:54:10;3.10;99.90
23143;DHT22;11740;51.168;4.112;2022-12-07T06:56:38;3.00;99.90
23143;DHT22;11740;51.168;4.112;2022-12-07T06:59:05;3.00;99.90
23143;DHT22;11740;51.168;4.112;2022-12-07T07:01:33;3.00;99.90
23143;DHT22;11740;51.168;4.112;2022-12-07T07:04:00;3.00;99.90
23143;DHT22;11740;51.168;4.112;2022-12-07T07:06:27;3.00;99.90
23143;DHT22;11740;51.168;4.112;2022-12-07T07:08:54;2.90;99.90
23143;DHT22;11740;51.168;4.112;2022-12-07T07:11:21;2.90;99.90
23143;DHT22;11740;51.168;4.112;2022-12-07T07:13:48;2.90;99.90
23143;DHT22;11740;51.168;4.112;2022-12-07T07:16:14;2.80;99.90
23143;DHT22;11740;51.168;4.112;2022-12-07T07:18:42;2.80;99.90
23143;DHT22;11740;51.168;4.112;2022-12-07T07:21:09;2.80;99.90
23143;DHT22;11740;51.168;4.112;2022-12-07T07:23:36;2.80;99.90
23143;DHT22;11740;51.168;4.112;2022-12-07T07:26:03;2.80;99.90
23143;DHT22;11740;51.168;4.112;2022-12-07T07:28:29;2.80;99.90
23143;DHT22;11740;51.168;4.112;2022-12-07T07:30:56;2.80;99.90
23143;DHT22;11740;51.168;4.112;2022-12-07T07:33:23;2.70;99.90
23143;DHT22;11740;51.168;4.112;2022-12-07T07:35:50;2.70;99.90
23143;DHT22;11740;51.168;4.112;2022-12-07T07:38:17;2.70;99.90
23143;DHT22;11740;51.168;4.112;2022-12-07T07:40:44;2.70;99.90
23143;DHT22;11740;51.168;4.112;2022-12-07T07:43:11;2.80;99.90
23143;DHT22;11740;51.168;4.112;2022-12-07T07:45:38;2.70;99.90
23143;DHT22;11740;51.168;4.112;2022-12-07T07:48:05;2.80;99.90
23143;DHT22;11740;51.168;4.112;2022-12-07T07:50:32;2.80;99.90
23143;DHT22;11740;51.168;4.112;2022-12-07T07:52:59;2.80;99.90
23143;DHT22;11740;51.168;4.112;2022-12-07T07:55:26;2.80;99.90
23143;DHT22;11740;51.168;4.112;2022-12-07T07:57:53;2.90;99.90
23143;DHT22;11740;51.168;4.112;2022-12-07T08:00:21;2.90;99.90
23143;DHT22;11740;51.168;4.112;2022-12-07T08:02:48;2.90;99.90
23143;DHT22;11740;51.168;4.112;2022-12-07T08:05:15;2.90;99.90
23143;DHT22;11740;51.168;4.112;2022-12-07T08:07:42;2.90;99.90
23143;DHT22;11740;51.168;4.112;2022-12-07T08:10:11;3.00;1.00
23143;DHT22;11740;51.168;4.112;2022-12-07T08:12:39;3.00;99.90
23143;DHT22;11740;51.168;4.112;2022-12-07T08:15:28;3.00;99.90
23143;DHT22;11740;51.168;4.112;2022-12-07T08:17:56;3.10;1.00
23143;DHT22;11740;51.168;4.112;2022-12-07T08:20:23;3.10;99.90
23143;DHT22;11740;51.168;4.112;2022-12-07T08:22:50;3.10;99.90
23143;DHT22;11740;51.168;4.112;2022-12-07T08:25:17;3.20;1.00
23143;DHT22;11740;51.168;4.112;2022-12-07T08:27:44;3.20;1.00
23143;DHT22;11740;51.168;4.112;2022-12-07T08:30:10;3.20;1.00
23143;DHT22;11740;51.168;4.112;2022-12-07T08:32:38;3.20;1.00
23143;DHT22;11740;51.168;4.112;2022-12-07T08:35:05;3.20;1.00
23143;DHT22;11740;51.168;4.112;2022-12-07T08:37:32;3.20;1.00
23143;DHT22;11740;51.168;4.112;2022-12-07T08:39:59;3.20;1.00
23143;DHT22;11740;51.168;4.112;2022-12-07T08:42:27;3.20;1.00
23143;DHT22;11740;51.168;4.112;2022-12-07T08:44:56;3.20;1.00
23143;DHT22;11740;51.168;4.112;2022-12-07T08:47:23;3.20;1.00
23143;DHT22;11740;51.168;4.112;2022-12-07T08:49:51;3.20;1.00
23143;DHT22;11740;51.168;4.112;2022-12-07T08:52:19;3.20;1.00
23143;DHT22;11740;51.168;4.112;2022-12-07T08:54:46;3.20;1.00
23143;DHT22;11740;51.168;4.112;2022-12-07T08:57:13;3.20;1.00
23143;DHT22;11740;51.168;4.112;2022-12-07T08:59:40;3.20;1.00
23143;DHT22;11740;51.168;4.112;2022-12-07T09:02:07;3.30;1.00
23143;DHT22;11740;51.168;4.112;2022-12-07T09:04:34;3.30;1.00
23143;DHT22;11740;51.168;4.112;2022-12-07T09:07:00;3.40;1.00
23143;DHT22;11740;51.168;4.112;2022-12-07T09:09:28;3.40;1.00
23143;DHT22;11740;51.168;4.112;2022-12-07T09:11:54;3.50;1.00
23143;DHT22;11740;51.168;4.112;2022-12-07T09:14:21;3.50;13.40
23143;DHT22;11740;51.168;4.112;2022-12-07T09:16:48;3.40;6.30
23143;DHT22;11740;51.168;4.112;2022-12-07T09:19:15;3.40;1.00
23143;DHT22;11740;51.168;4.112;2022-12-07T09:21:42;3.40;1.00
23143;DHT22;11740;51.168;4.112;2022-12-07T09:24:12;3.50;13.70
23143;DHT22;11740;51.168;4.112;2022-12-07T09:26:39;3.50;24.60
23143;DHT22;11740;51.168;4.112;2022-12-07T09:29:07;3.50;47.60
23143;DHT22;11740;51.168;4.112;2022-12-07T09:31:35;3.60;99.90
23143;DHT22;11740;51.168;4.112;2022-12-07T09:34:03;3.60;80.80
23143;DHT22;11740;51.168;4.112;2022-12-07T09:36:31;3.60;90.20
23143;DHT22;11740;51.168;4.112;2022-12-07T09:38:58;3.70;99.90
23143;DHT22;11740;51.168;4.112;2022-12-07T09:41:25;3.70;99.90
23143;DHT22;11740;51.168;4.112;2022-12-07T09:43:54;3.70;99.90
23143;DHT22;11740;51.168;4.112;2022-12-07T09:46:29;3.70;99.90
23143;DHT22;11740;51.168;4.112;2022-12-07T09:49:03;3.80;99.90
23143;DHT22;11740;51.168;4.112;2022-12-07T09:51:30;3.80;99.90
23143;DHT22;11740;51.168;4.112;2022-12-07T09:53:57;3.80;99.90
23143;DHT22;11740;51.168;4.112;2022-12-07T09:56:25;3.80;90.40
23143;DHT22;11740;51.168;4.112;2022-12-07T09:58:59;3.80;70.90
23143;DHT22;11740;51.168;4.112;2022-12-07T10:01:28;3.90;81.10
23143;DHT22;11740;51.168;4.112;2022-12-07T10:04:16;3.90;73.00
23143;DHT22;11740;51.168;4.112;2022-12-07T10:06:45;3.90;90.60
23143;DHT22;11740;51.168;4.112;2022-12-07T10:09:15;4.00;61.10
23143;DHT22;11740;51.168;4.112;2022-12-07T10:14:30;4.10;99.90
23143;DHT22;11740;51.168;4.112;2022-12-07T10:17:32;4.20;99.90
23143;DHT22;11740;51.168;4.112;2022-12-07T10:22:38;4.40;99.90
23143;DHT22;11740;51.168;4.112;2022-12-07T10:25:08;4.40;99.90
23143;DHT22;11740;51.168;4.112;2022-12-07T10:27:57;4.60;99.90
23143;DHT22;11740;51.168;4.112;2022-12-07T10:30:27;4.50;88.60
23143;DHT22;11740;51.168;4.112;2022-12-07T10:32:55;4.60;98.10
23143;DHT22;11740;51.168;4.112;2022-12-07T10:35:28;4.80;99.90
23143;DHT22;11740;51.168;4.112;2022-12-07T10:37:57;4.80;99.90
23143;DHT22;11740;51.168;4.112;2022-12-07T10:40:35;4.90;68.00
23143;DHT22;11740;51.168;4.112;2022-12-07T10:54:21;4.90;1.00
23143;DHT22;11740;51.168;4.112;2022-12-07T10:57:11;4.90;1.00
23143;DHT22;11740;51.168;4.112;2022-12-07T11:00:06;4.90;1.00
23143;DHT22;11740;51.168;4.112;2022-12-07T11:02:41;5.00;1.00
23143;DHT22;11740;51.168;4.112;2022-12-07T11:05:45;5.00;1.00
23143;DHT22;11740;51.168;4.112;2022-12-07T11:08:44;5.10;1.00
23143;DHT22;11740;51.168;4.112;2022-12-07T11:13:59;5.10;1.00
23143;DHT22;11740;51.168;4.112;2022-12-07T11:19:24;5.20;1.00
23143;DHT22;11740;51.168;4.112;2022-12-07T11:22:34;5.30;1.00
23143;DHT22;11740;51.168;4.112;2022-12-07T11:25:14;5.40;1.00
23143;DHT22;11740;51.168;4.112;2022-12-07T11:27:48;5.50;1.00
23143;DHT22;11740;51.168;4.112;2022-12-07T11:30:22;5.60;1.00
23143;DHT22;11740;51.168;4.112;2022-12-07T11:35:30;5.70;1.00
23143;DHT22;11740;51.168;4.112;2022-12-07T11:38:02;5.80;1.00
23143;DHT22;11740;51.168;4.112;2022-12-07T11:40:35;5.90;1.00
23143;DHT22;11740;51.168;4.112;2022-12-07T11:43:18;5.90;1.00
23143;DHT22;11740;51.168;4.112;2022-12-07T11:46:09;6.00;99.90
23143;DHT22;11740;51.168;4.112;2022-12-07T11:51:54;6.10;99.90
23143;DHT22;11740;51.168;4.112;2022-12-07T11:54:27;6.30;99.90
23143;DHT22;11740;51.168;4.112;2022-12-07T11:56:56;6.40;84.50
23143;DHT22;11740;51.168;4.112;2022-12-07T11:59:36;6.50;1.00
23143;DHT22;11740;51.168;4.112;2022-12-07T12:04:46;6.40;99.90
23143;DHT22;11740;51.168;4.112;2022-12-07T12:07:38;6.50;99.90
23143;DHT22;11740;51.168;4.112;2022-12-07T12:14:05;6.60;1.00
23143;DHT22;11740;51.168;4.112;2022-12-07T12:19:41;6.60;99.90
23143;DHT22;11740;51.168;4.112;2022-12-07T12:22:17;6.60;99.90
23143;DHT22;11740;51.168;4.112;2022-12-07T12:24:47;6.60;99.90
23143;DHT22;11740;51.168;4.112;2022-12-07T12:27:39;6.60;99.90
23143;DHT22;11740;51.168;4.112;2022-12-07T12:30:05;6.60;99.90
23143;DHT22;11740;51.168;4.112;2022-12-07T12:32:38;6.60;99.90
23143;DHT22;11740;51.168;4.112;2022-12-07T12:35:40;6.70;99.90
23143;DHT22;11740;51.168;4.112;2022-12-07T12:38:24;6.70;99.90
23143;DHT22;11740;51.168;4.112;2022-12-07T12:40:54;6.80;99.90
23143;DHT22;11740;51.168;4.112;2022-12-07T12:48:55;7.10;99.90
23143;DHT22;11740;51.168;4.112;2022-12-07T12:51:40;7.10;99.90
23143;DHT22;11740;51.168;4.112;2022-12-07T12:54:12;7.10;99.90
23143;DHT22;11740;51.168;4.112;2022-12-07T13:02:49;6.80;99.90
23143;DHT22;11740;51.168;4.112;2022-12-07T13:05:21;6.80;99.90
23143;DHT22;11740;51.168;4.112;2022-12-07T13:08:13;6.70;2.20
23143;DHT22;11740;51.168;4.112;2022-12-07T13:10:45;6.80;1.00
23143;DHT22;11740;51.168;4.112;2022-12-07T13:15:46;6.80;99.90
23143;DHT22;11740;51.168;4.112;2022-12-07T13:28:47;6.90;99.90
23143;DHT22;11740;51.168;4.112;2022-12-07T13:33:59;6.90;67.40
23143;DHT22;11740;51.168;4.112;2022-12-07T13:36:28;6.90;87.50
23143;DHT22;11740;51.168;4.112;2022-12-07T13:39:17;6.90;99.90
23143;DHT22;11740;51.168;4.112;2022-12-07T13:41:49;6.90;99.90
23143;DHT22;11740;51.168;4.112;2022-12-07T13:44:18;6.90;99.90
23143;DHT22;11740;51.168;4.112;2022-12-07T13:46:53;6.90;99.90
23143;DHT22;11740;51.168;4.112;2022-12-07T13:49:31;6.80;26.70
23143;DHT22;11740;51.168;4.112;2022-12-07T13:52:18;6.90;99.90
23143;DHT22;11740;51.168;4.112;2022-12-07T13:54:49;6.80;74.70
23143;DHT22;11740;51.168;4.112;2022-12-07T13:57:17;6.80;99.90
23143;DHT22;11740;51.168;4.112;2022-12-07T13:59:44;6.90;99.90
23143;DHT22;11740;51.168;4.112;2022-12-07T14:02:28;6.90;99.90
23143;DHT22;11740;51.168;4.112;2022-12-07T14:05:08;6.80;28.80
23143;DHT22;11740;51.168;4.112;2022-12-07T14:07:59;6.80;1.00
23143;DHT22;11740;51.168;4.112;2022-12-07T14:10:34;6.80;28.30
23143;DHT22;11740;51.168;4.112;2022-12-07T14:13:03;6.70;1.00
23143;DHT22;11740;51.168;4.112;2022-12-07T14:15:51;6.70;1.00
23143;DHT22;11740;51.168;4.112;2022-12-07T14:18:25;6.70;12.90
23143;DHT22;11740;51.168;4.112;2022-12-07T14:21:04;6.70;99.90
23143;DHT22;11740;51.168;4.112;2022-12-07T14:23:33;6.80;99.90
23143;DHT22;11740;51.168;4.112;2022-12-07T14:29:18;6.70;99.90
23143;DHT22;11740;51.168;4.112;2022-12-07T14:31:47;6.70;38.90
23143;DHT22;11740;51.168;4.112;2022-12-07T14:34:14;6.70;99.90
23143;DHT22;11740;51.168;4.112;2022-12-07T14:36:41;6.60;1.00
23143;DHT22;11740;51.168;4.112;2022-12-07T14:39:08;6.50;1.00
23143;DHT22;11740;51.168;4.112;2022-12-07T14:41:39;6.50;1.00
23143;DHT22;11740;51.168;4.112;2022-12-07T14:44:18;6.50;1.00
23143;DHT22;11740;51.168;4.112;2022-12-07T14:46:50;6.50;1.00
23143;DHT22;11740;51.168;4.112;2022-12-07T14:49:37;6.30;1.00
23143;DHT22;11740;51.168;4.112;2022-12-07T14:52:06;6.30;1.00
23143;DHT22;11740;51.168;4.112;2022-12-07T14:54:59;6.30;1.00
23143;DHT22;11740;51.168;4.112;2022-12-07T14:57:26;6.20;1.00
23143;DHT22;11740;51.168;4.112;2022-12-07T14:59:53;6.20;1.00
23143;DHT22;11740;51.168;4.112;2022-12-07T15:02:20;6.20;1.00
23143;DHT22;11740;51.168;4.112;2022-12-07T15:04:47;6.30;1.00
23143;DHT22;11740;51.168;4.112;2022-12-07T15:07:22;6.30;1.00
23143;DHT22;11740;51.168;4.112;2022-12-07T15:09:53;6.20;1.00
23143;DHT22;11740;51.168;4.112;2022-12-07T15:12:20;6.30;1.00
23143;DHT22;11740;51.168;4.112;2022-12-07T15:14:46;6.20;1.00
23143;DHT22;11740;51.168;4.112;2022-12-07T15:17:13;6.20;1.00
23143;DHT22;11740;51.168;4.112;2022-12-07T15:19:53;6.10;99.90
23143;DHT22;11740;51.168;4.112;2022-12-07T15:22:21;6.10;1.00
23143;DHT22;11740;51.168;4.112;2022-12-07T15:24:48;6.20;1.00
23143;DHT22;11740;51.168;4.112;2022-12-07T15:27:15;6.00;99.90
23143;DHT22;11740;51.168;4.112;2022-12-07T15:29:42;6.00;1.00
23143;DHT22;11740;51.168;4.112;2022-12-07T15:32:09;6.00;1.00
23143;DHT22;11740;51.168;4.112;2022-12-07T15:34:36;5.90;1.00
23143;DHT22;11740;51.168;4.112;2022-12-07T15:37:06;6.00;1.00
23143;DHT22;11740;51.168;4.112;2022-12-07T15:39:35;6.00;1.00
23143;DHT22;11740;51.168;4.112;2022-12-07T15:42:02;6.00;99.90
23143;DHT22;11740;51.168;4.112;2022-12-07T15:44:29;5.90;1.00
23143;DHT22;11740;51.168;4.112;2022-12-07T15:47:15;5.80;1.00
23143;DHT22;11740;51.168;4.112;2022-12-07T15:49:42;5.70;1.00
23143;DHT22;11740;51.168;4.112;2022-12-07T15:52:09;5.80;1.00
23143;DHT22;11740;51.168;4.112;2022-12-07T15:54:36;5.80;1.00
23143;DHT22;11740;51.168;4.112;2022-12-07T15:57:03;5.80;1.00
23143;DHT22;11740;51.168;4.112;2022-12-07T15:59:29;5.80;1.00
23143;DHT22;11740;51.168;4.112;2022-12-07T16:01:57;5.70;1.00
23143;DHT22;11740;51.168;4.112;2022-12-07T16:04:24;5.70;1.00
23143;DHT22;11740;51.168;4.112;2022-12-07T16:06:50;5.70;1.00
23143;DHT22;11740;51.168;4.112;2022-12-07T16:09:18;5.70;99.90
23143;DHT22;11740;51.168;4.112;2022-12-07T16:11:45;5.60;95.60
23143;DHT22;11740;51.168;4.112;2022-12-07T16:14:12;5.60;99.90
23143;DHT22;11740;51.168;4.112;2022-12-07T16:16:39;5.60;99.90
23143;DHT22;11740;51.168;4.112;2022-12-07T16:19:07;5.60;99.90
23143;DHT22;11740;51.168;4.112;2022-12-07T16:21:34;5.60;99.90
23143;DHT22;11740;51.168;4.112;2022-12-07T16:24:02;5.50;51.40
23143;DHT22;11740;51.168;4.112;2022-12-07T16:26:29;5.50;1.00
23143;DHT22;11740;51.168;4.112;2022-12-07T16:28:56;5.50;1.00
23143;DHT22;11740;51.168;4.112;2022-12-07T16:31:26;5.40;1.00
23143;DHT22;11740;51.168;4.112;2022-12-07T16:33:54;5.40;1.00
23143;DHT22;11740;51.168;4.112;2022-12-07T16:36:22;5.30;1.00
23143;DHT22;11740;51.168;4.112;2022-12-07T16:39:10;5.30;1.00
23143;DHT22;11740;51.168;4.112;2022-12-07T16:41:37;5.20;1.00
23143;DHT22;11740;51.168;4.112;2022-12-07T16:44:05;5.20;1.00
23143;DHT22;11740;51.168;4.112;2022-12-07T16:46:34;5.20;1.00
23143;DHT22;11740;51.168;4.112;2022-12-07T16:49:02;5.20;1.00
23143;DHT22;11740;51.168;4.112;2022-12-07T16:51:30;5.20;11.90
23143;DHT22;11740;51.168;4.112;2022-12-07T16:53:57;5.30;11.80
23143;DHT22;11740;51.168;4.112;2022-12-07T16:56:24;5.30;1.00
23143;DHT22;11740;51.168;4.112;2022-12-07T16:58:53;5.20;16.20
23143;DHT22;11740;51.168;4.112;2022-12-07T17:01:21;5.20;27.10
23143;DHT22;11740;51.168;4.112;2022-12-07T17:03:49;5.20;28.80
23143;DHT22;11740;51.168;4.112;2022-12-07T17:06:21;5.10;11.90
23143;DHT22;11740;51.168;4.112;2022-12-07T17:08:50;5.10;1.00
23143;DHT22;11740;51.168;4.112;2022-12-07T17:11:18;5.10;29.50
23143;DHT22;11740;51.168;4.112;2022-12-07T17:13:49;5.10;1.00
23143;DHT22;11740;51.168;4.112;2022-12-07T17:16:35;5.10;11.60
23143;DHT22;11740;51.168;4.112;2022-12-07T17:19:06;5.00;1.00
23143;DHT22;11740;51.168;4.112;2022-12-07T17:21:34;4.90;11.60
23143;DHT22;11740;51.168;4.112;2022-12-07T17:24:01;4.90;13.80
23143;DHT22;11740;51.168;4.112;2022-12-07T17:26:29;4.90;16.70
23143;DHT22;11740;51.168;4.112;2022-12-07T17:29:01;4.80;1.00
23143;DHT22;11740;51.168;4.112;2022-12-07T17:31:29;4.70;1.00
23143;DHT22;11740;51.168;4.112;2022-12-07T17:33:56;4.80;56.20
23143;DHT22;11740;51.168;4.112;2022-12-07T17:36:24;4.70;1.00
23143;DHT22;11740;51.168;4.112;2022-12-07T17:38:52;4.70;22.00
23143;DHT22;11740;51.168;4.112;2022-12-07T17:41:20;4.70;1.00
23143;DHT22;11740;51.168;4.112;2022-12-07T17:44:11;4.60;11.50
23143;DHT22;11740;51.168;4.112;2022-12-07T17:46:40;4.60;62.80
23143;DHT22;11740;51.168;4.112;2022-12-07T17:49:07;4.60;72.50
23143;DHT22;11740;51.168;4.112;2022-12-07T17:51:34;4.70;99.90